Time;durP1;ratioP1;P1;durP2;ratioP2;P2;SDS_P1;SDS_P2;PMS_P1;PMS_P2;Temp;Humidity;BMP_temperature;BMP_pressure;BME280_temperature;BME280_humidity;BME280_pressure;Samples;Min_cycle;Max_cycle;Signal;HPM_P1;HPM_P2
2022/05/21 00:00:17;;;;;;;;;;;;;;;20.80;63.70;101878.56;6102403;23;19992;-86
2022/05/21 00:02:42;;;;;;;;;;;;;;;20.78;63.64;101869.84;6127951;23;19919;-85
2022/05/21 00:05:09;;;;;;;;;;;;;;;20.80;63.98;101875.94;6102423;23;20245;-85
2022/05/21 00:07:34;;;;;;;;;;;;;;;20.79;63.42;101871.56;6102160;23;19987;-85
2022/05/21 00:09:59;;;;;;;;;;;;;;;20.79;63.10;101876.78;6128149;23;19909;-85
2022/05/21 00:12:25;;;;;;;;;;;;;;;20.79;62.33;101872.44;6102971;23;19917;-86
2022/05/21 00:14:52;;;;;;;;;;;;;;;20.79;63.50;101874.19;6078019;23;19920;-85
2022/05/21 00:17:18;;;;;;;;;;;;;;;20.79;63.09;101875.03;6078395;23;19933;-86
2022/05/21 00:19:43;;;;;;;;;;;;;;;20.79;62.79;101869.81;6101823;23;20345;-86
2022/05/21 00:22:08;;;;;;;;;;;;;;;20.78;63.61;101873.31;6128020;23;19905;-86
2022/05/21 00:24:34;;;;;;;;;;;;;;;20.78;63.57;101878.56;6078338;23;19913;-86
2022/05/21 00:26:59;;;;;;;;;;;;;;;20.78;63.08;101878.56;6101993;23;19915;-85
2022/05/21 00:29:26;;;;;;;;;;;;;;;20.78;62.93;101875.94;6127704;23;19945;-85
2022/05/21 00:31:51;;;;;;;;;;;;;;;20.78;63.46;101880.31;6078583;23;19924;-85
2022/05/21 00:34:17;;;;;;;;;;;;;;;20.78;62.55;101888.16;6128440;23;19909;-86
2022/05/21 00:36:42;;;;;;;;;;;;;;;20.78;63.09;101885.53;6102071;23;20318;-85
2022/05/21 00:39:08;;;;;;;;;;;;;;;20.78;63.24;101891.63;6077948;23;19963;-85
2022/05/21 00:41:34;;;;;;;;;;;;;;;20.78;62.17;101885.53;6077808;23;19913;-86
2022/05/21 00:44:00;;;;;;;;;;;;;;;20.78;63.12;101885.53;6077952;23;19913;-85
2022/05/21 00:46:30;;;;;;;;;;;;;;;20.77;62.71;101882.03;6101964;23;20381;-86
2022/05/21 00:49:08;;;;;;;;;;;;;;;20.78;63.10;101885.53;6101870;23;20286;-85
2022/05/21 00:51:36;;;;;;;;;;;;;;;20.77;62.79;101883.78;6101446;23;19909;-85
2022/05/21 00:54:02;;;;;;;;;;;;;;;20.80;62.78;101886.41;6102491;23;20237;-86
2022/05/21 00:56:30;;;;;;;;;;;;;;;20.78;62.68;101886.41;6101811;23;19908;-84
2022/05/21 01:01:42;;;;;;;;;;;;;;;20.79;62.49;101884.66;6128012;23;19964;-86
2022/05/21 01:04:08;;;;;;;;;;;;;;;20.78;63.09;101885.53;6127977;23;19916;-85
2022/05/21 01:06:34;;;;;;;;;;;;;;;20.78;62.34;101880.31;6101667;23;19909;-86
2022/05/21 01:09:00;;;;;;;;;;;;;;;20.78;61.81;101882.91;6101897;23;19909;-85
2022/05/21 01:11:25;;;;;;;;;;;;;;;20.78;62.04;101885.53;6077696;23;19920;-84
2022/05/21 01:13:51;;;;;;;;;;;;;;;20.78;62.39;101880.31;6127844;23;19917;-86
2022/05/21 01:16:16;;;;;;;;;;;;;;;20.78;62.80;101872.47;6101420;23;19909;-86
2022/05/21 01:18:42;;;;;;;;;;;;;;;20.78;62.34;101880.31;6101835;23;20285;-79
2022/05/21 01:21:07;;;;;;;;;;;;;;;20.78;62.35;101882.91;6101524;23;19908;-79
2022/05/21 01:23:33;;;;;;;;;;;;;;;20.78;62.16;101877.69;6102131;23;20291;-86
2022/05/21 01:25:59;;;;;;;;;;;;;;;20.78;61.98;101880.31;6102443;23;20345;-86
2022/05/21 01:28:26;;;;;;;;;;;;;;;20.78;61.95;101881.16;6127730;23;19909;-85
2022/05/21 01:30:52;;;;;;;;;;;;;;;20.77;61.82;101871.56;6127653;23;20218;-85
2022/05/21 01:33:20;;;;;;;;;;;;;;;20.77;62.16;101873.31;6103269;23;19919;-85
2022/05/21 01:35:46;;;;;;;;;;;;;;;20.77;61.13;101879.41;6103597;23;19909;-86
2022/05/21 01:38:12;;;;;;;;;;;;;;;20.77;61.93;101868.94;6103078;23;19909;-86
2022/05/21 01:40:38;;;;;;;;;;;;;;;20.78;61.40;101864.59;6102523;23;19937;-86
2022/05/21 01:45:51;;;;;;;;;;;;;;;20.77;61.71;101871.56;6127643;23;19956;-86
2022/05/21 01:48:19;;;;;;;;;;;;;;;20.78;61.41;101875.06;6079227;23;20289;-86
2022/05/21 01:50:44;;;;;;;;;;;;;;;20.78;61.97;101872.47;6104145;23;19919;-86
2022/05/21 01:53:11;;;;;;;;;;;;;;;20.79;61.57;101882.03;6129350;23;19991;-85
2022/05/21 01:55:37;;;;;;;;;;;;;;;20.78;62.00;101875.06;6079800;23;19913;-85
2022/05/21 01:58:02;;;;;;;;;;;;;;;20.77;60.68;101870.69;6129152;23;19931;-86
2022/05/21 02:00:27;;;;;;;;;;;;;;;20.76;60.93;101880.31;6079817;23;19912;-85
2022/05/21 02:02:52;;;;;;;;;;;;;;;20.77;61.57;101878.56;6103430;23;19913;-85
2022/05/21 02:05:17;;;;;;;;;;;;;;;20.77;61.22;101876.78;6129204;23;20009;-85
2022/05/21 02:07:43;;;;;;;;;;;;;;;20.76;61.58;101872.47;6079197;23;20318;-85
2022/05/21 02:10:08;;;;;;;;;;;;;;;20.76;60.75;101880.31;6103013;23;20344;-79
2022/05/21 02:12:34;;;;;;;;;;;;;;;20.77;61.68;101889.88;6128272;23;19917;-79
2022/05/21 02:14:59;;;;;;;;;;;;;;;20.77;61.56;101882.03;6128672;23;19913;-85
2022/05/21 02:17:24;;;;;;;;;;;;;;;20.77;61.21;101875.94;6129212;23;19996;-84
2022/05/21 02:19:50;;;;;;;;;;;;;;;20.76;61.17;101880.31;6103432;23;19909;-84
2022/05/21 02:22:16;;;;;;;;;;;;;;;20.76;60.85;101885.53;6102676;23;19964;-84
2022/05/21 02:24:41;;;;;;;;;;;;;;;20.77;60.99;101887.25;6128985;23;19908;-85
2022/05/21 02:27:11;;;;;;;;;;;;;;;20.77;61.22;101891.63;6103191;23;19916;-85
2022/05/21 02:29:36;;;;;;;;;;;;;;;20.77;61.35;101884.66;6079056;23;19964;-85
2022/05/21 02:32:02;;;;;;;;;;;;;;;20.77;60.89;101886.41;6102824;23;19913;-85
2022/05/21 02:34:27;;;;;;;;;;;;;;;20.76;61.00;101890.78;6103182;23;20295;-85
2022/05/21 02:39:36;;;;;;;;;;;;;;;20.77;60.66;101894.25;6128969;23;19915;-86
2022/05/21 02:42:02;;;;;;;;;;;;;;;20.75;61.08;101892.53;6078755;23;19991;-86
2022/05/21 02:44:28;;;;;;;;;;;;;;;20.77;60.06;101896.88;6102596;23;19948;-85
2022/05/21 02:46:53;;;;;;;;;;;;;;;20.77;60.75;101883.78;6103293;23;19913;-85
2022/05/21 02:49:19;;;;;;;;;;;;;;;20.75;60.83;101900.38;6079094;23;20302;-86
2022/05/21 02:51:44;;;;;;;;;;;;;;;20.76;60.81;101901.22;6078737;23;20031;-85
2022/05/21 02:54:14;;;;;;;;;;;;;;;20.74;60.22;101890.78;6103013;23;19924;-86
2022/05/21 02:56:42;;;;;;;;;;;;;;;20.75;60.37;101896.88;6102994;23;19909;-84
2022/05/21 02:59:07;;;;;;;;;;;;;;;20.75;60.95;101897.75;6102783;23;19932;-85
2022/05/21 03:01:33;;;;;;;;;;;;;;;20.74;60.86;101897.75;6103045;23;20317;-85
2022/05/21 03:03:59;;;;;;;;;;;;;;;20.75;60.87;101897.75;6078592;23;19920;-85
2022/05/21 03:06:25;;;;;;;;;;;;;;;20.74;60.51;101905.59;6078837;23;19917;-86
2022/05/21 03:11:34;;;;;;;;;;;;;;;20.74;60.72;101905.59;6128607;23;19937;-85
2022/05/21 03:14:00;;;;;;;;;;;;;;;20.73;61.07;101899.50;6078571;23;19921;-86
2022/05/21 03:16:25;;;;;;;;;;;;;;;20.73;60.75;101904.75;6079142;23;19913;-85
2022/05/21 03:18:50;;;;;;;;;;;;;;;20.74;61.01;101901.22;6078645;23;19913;-86
2022/05/21 03:21:15;;;;;;;;;;;;;;;20.74;59.88;101903.00;6078840;23;20595;-84
2022/05/21 03:23:41;;;;;;;;;;;;;;;20.74;60.56;101906.47;6103057;23;19916;-85
2022/05/21 03:26:06;;;;;;;;;;;;;;;20.75;59.75;101907.31;6103079;23;20245;-86
2022/05/21 03:28:31;;;;;;;;;;;;;;;20.75;60.23;101909.94;6078591;23;19967;-85
2022/05/21 03:30:57;;;;;;;;;;;;;;;20.75;59.77;101912.56;6102562;23;20348;-86
2022/05/21 03:33:22;;;;;;;;;;;;;;;20.74;60.31;101914.31;6102285;23;20326;-79
2022/05/21 03:35:47;;;;;;;;;;;;;;;20.75;60.09;101915.19;6102119;23;19913;-79
2022/05/21 03:38:12;;;;;;;;;;;;;;;20.75;60.13;101913.44;6128495;23;19909;-80
2022/05/21 03:40:38;;;;;;;;;;;;;;;20.75;59.99;101918.69;6081279;23;19949;-81
2022/05/21 03:43:03;;;;;;;;;;;;;;;20.75;59.81;101921.31;6101872;23;20234;-79
2022/05/21 03:45:30;;;;;;;;;;;;;;;20.75;60.17;101920.41;6126674;23;20310;-79
2022/05/21 03:47:55;;;;;;;;;;;;;;;20.75;60.07;101918.69;6127703;23;19912;-79
2022/05/21 03:50:22;;;;;;;;;;;;;;;20.77;59.10;101930.88;6127662;23;19959;-79
2022/05/21 03:52:48;;;;;;;;;;;;;;;20.77;60.04;101921.28;6101647;23;19909;-78
2022/05/21 03:55:13;;;;;;;;;;;;;;;20.78;59.49;101932.63;6128439;23;19920;-79
2022/05/21 03:57:38;;;;;;;;;;;;;;;20.79;59.76;101929.97;6101753;23;19920;-79
2022/05/21 04:00:05;;;;;;;;;;;;;;;20.78;59.37;101930.88;6102454;23;19917;-79
2022/05/21 04:02:32;;;;;;;;;;;;;;;20.79;59.67;101929.97;6101727;23;19913;-79
2022/05/21 04:04:58;;;;;;;;;;;;;;;20.80;59.10;101936.97;6101663;23;19908;-79
2022/05/21 04:07:23;;;;;;;;;;;;;;;20.81;59.37;101932.59;6101919;23;19909;-79
2022/05/21 04:09:49;;;;;;;;;;;;;;;20.82;59.21;101934.31;6127459;23;19913;-79
2022/05/21 04:12:14;;;;;;;;;;;;;;;20.82;58.90;101940.44;6101138;23;19921;-79
2022/05/21 04:14:39;;;;;;;;;;;;;;;20.83;58.86;101943.91;6126173;23;20318;-79
2022/05/21 04:17:05;;;;;;;;;;;;;;;20.85;58.85;101947.41;6101534;23;19909;-79
2022/05/21 04:19:31;;;;;;;;;;;;;;;20.87;58.79;101950.88;6101659;23;20233;-79
2022/05/21 04:21:57;;;;;;;;;;;;;;;20.88;58.72;101952.59;6127675;23;19952;-79
2022/05/21 04:24:22;;;;;;;;;;;;;;;20.89;58.41;101954.34;6101588;23;19956;-79
2022/05/21 04:26:48;;;;;;;;;;;;;;;20.91;58.14;101957.84;6127365;23;19909;-79
2022/05/21 04:29:16;;;;;;;;;;;;;;;20.93;58.88;101956.09;6101524;23;19909;-79
2022/05/21 04:31:41;;;;;;;;;;;;;;;20.92;58.51;101957.81;6127549;23;19939;-79
2022/05/21 04:34:06;;;;;;;;;;;;;;;20.94;58.11;101956.06;6101569;23;20314;-79
2022/05/21 04:36:32;;;;;;;;;;;;;;;20.94;58.61;101953.44;6101555;23;19909;-78
2022/05/21 04:38:58;;;;;;;;;;;;;;;20.95;58.31;101952.56;6077650;23;19937;-79
2022/05/21 04:41:23;;;;;;;;;;;;;;;20.95;58.08;101954.31;6101405;23;19909;-79
2022/05/21 04:43:50;;;;;;;;;;;;;;;20.95;57.84;101960.41;6127529;23;20317;-80
2022/05/21 04:46:16;;;;;;;;;;;;;;;20.96;58.28;101961.28;6101407;23;19940;-78
2022/05/21 04:48:42;;;;;;;;;;;;;;;20.95;57.92;101964.78;6101685;23;19924;-79
2022/05/21 04:51:07;;;;;;;;;;;;;;;20.97;58.34;101963.03;6127667;23;19909;-79
2022/05/21 04:53:33;;;;;;;;;;;;;;;21.01;58.02;101972.59;6077437;23;19952;-78
2022/05/21 04:55:58;;;;;;;;;;;;;;;21.09;57.94;101975.16;6127192;23;20241;-79
2022/05/21 04:58:23;;;;;;;;;;;;;;;21.27;57.73;101971.56;6127127;23;20405;-79
2022/05/21 05:00:48;;;;;;;;;;;;;;;21.41;56.90;101969.75;6101551;23;19988;-78
2022/05/21 05:03:15;;;;;;;;;;;;;;;21.53;57.67;101964.41;6125572;23;20005;-78
2022/05/21 05:05:41;;;;;;;;;;;;;;;21.66;56.72;101972.16;6101396;23;19909;-78
2022/05/21 05:08:07;;;;;;;;;;;;;;;21.76;57.32;101969.44;6127291;23;19909;-79
2022/05/21 05:10:32;;;;;;;;;;;;;;;21.85;58.15;101978.97;6127293;23;19916;-79
2022/05/21 05:12:58;;;;;;;;;;;;;;;21.95;55.85;101972.78;6076885;23;19952;-79
2022/05/21 05:15:23;;;;;;;;;;;;;;;22.04;56.43;101971.81;6101114;23;19913;-79
2022/05/21 05:17:48;;;;;;;;;;;;;;;22.10;56.03;101978.72;6127386;23;19972;-79
2022/05/21 05:20:14;;;;;;;;;;;;;;;22.17;55.30;101980.41;6127353;23;19967;-78
2022/05/21 05:22:39;;;;;;;;;;;;;;;22.21;55.22;101986.47;6127437;23;19905;-79
2022/05/21 05:25:05;;;;;;;;;;;;;;;22.23;54.89;101977.72;6129102;23;19913;-79
2022/05/21 05:27:30;;;;;;;;;;;;;;;22.28;54.68;101982.97;6129392;23;19909;-79
2022/05/21 05:29:55;;;;;;;;;;;;;;;22.36;54.93;101984.59;6103124;23;19987;-79
2022/05/21 05:32:21;;;;;;;;;;;;;;;22.35;52.56;101974.97;6103052;23;20346;-79
2022/05/21 05:34:46;;;;;;;;;;;;;;;22.44;53.89;101976.63;6103083;23;19909;-78
2022/05/21 05:37:11;;;;;;;;;;;;;;;22.48;53.08;101986.22;6103428;23;19913;-77
2022/05/21 05:39:37;;;;;;;;;;;;;;;22.52;52.85;101987.03;6102968;23;19920;-77
2022/05/21 05:42:04;;;;;;;;;;;;;;;22.58;52.42;101979.97;6102847;23;19913;-77
2022/05/21 05:44:29;;;;;;;;;;;;;;;22.70;52.92;101985.94;6129011;23;19909;-77
2022/05/21 05:46:55;;;;;;;;;;;;;;;22.78;52.29;101991.97;6103077;23;19916;-78
2022/05/21 05:49:20;;;;;;;;;;;;;;;22.90;52.53;101994.41;6103065;23;19945;-78
2022/05/21 05:51:45;;;;;;;;;;;;;;;23.03;51.44;101996.91;6129190;23;19917;-78
2022/05/21 05:54:10;;;;;;;;;;;;;;;23.14;51.06;101998.47;6129011;23;19916;-77
2022/05/21 05:56:36;;;;;;;;;;;;;;;23.23;50.76;102000.09;6103169;23;19913;-78
2022/05/21 06:01:45;;;;;;;;;;;;;;;23.36;50.39;102006.91;6128753;23;19920;-78
2022/05/21 06:04:10;;;;;;;;;;;;;;;23.43;49.79;102010.31;6127546;23;19909;-77
2022/05/21 06:06:36;;;;;;;;;;;;;;;23.41;49.49;102012.97;6102954;23;19909;-77
2022/05/21 06:09:02;;;;;;;;;;;;;;;23.45;49.13;102019.03;6102679;23;19915;-77
2022/05/21 06:11:27;;;;;;;;;;;;;;;23.53;49.43;102013.66;6102659;23;19975;-79
2022/05/21 06:13:52;;;;;;;;;;;;;;;23.50;49.07;102021.59;6102524;23;19917;-80
2022/05/21 06:16:18;;;;;;;;;;;;;;;23.58;49.18;102020.59;6078930;23;20326;-82
2022/05/21 06:18:43;;;;;;;;;;;;;;;23.64;48.80;102031.88;6103077;23;20238;-81
2022/05/21 06:21:09;;;;;;;;;;;;;;;23.84;48.07;102035.06;6079216;23;19913;-83
2022/05/21 06:23:35;;;;;;;;;;;;;;;23.65;47.78;102039.75;6079367;23;19949;-83
2022/05/21 06:26:01;;;;;;;;;;;;;;;23.62;48.01;102048.53;6128995;23;20246;-82
2022/05/21 06:28:26;;;;;;;;;;;;;;;23.62;47.93;102047.66;6079451;23;19913;-84
2022/05/21 06:30:52;;;;;;;;;;;;;;;23.65;47.60;102052.00;6103783;23;19984;-84
2022/05/21 06:33:18;;;;;;;;;;;;;;;23.61;47.81;102057.31;6129333;23;19945;-86
2022/05/21 06:35:44;;;;;;;;;;;;;;;23.56;47.67;102055.63;6139593;23;19909;-87
2022/05/21 06:38:10;;;;;;;;;;;;;;;23.82;47.46;102063.13;6106582;23;19909;-80
2022/05/21 06:40:35;;;;;;;;;;;;;;;23.60;45.91;102063.47;6081062;23;19941;-80
2022/05/21 06:43:00;;;;;;;;;;;;;;;23.14;47.29;102074.63;6128972;23;19913;-78
2022/05/21 06:45:29;;;;;;;;;;;;;;;22.82;46.80;102074.13;6102498;23;19913;-77
2022/05/21 06:47:59;;;;;;;;;;;;;;;22.59;46.88;102083.16;6102864;23;19910;-77
2022/05/21 06:50:24;;;;;;;;;;;;;;;22.53;46.40;102084.06;6128858;23;20223;-76
2022/05/21 06:52:49;;;;;;;;;;;;;;;22.42;46.42;102085.06;6078813;23;19968;-77
2022/05/21 06:55:15;;;;;;;;;;;;;;;22.44;46.56;102081.56;6103392;23;19913;-77
2022/05/21 06:57:40;;;;;;;;;;;;;;;22.55;47.19;102086.69;6103117;23;20246;-77
2022/05/21 07:00:05;;;;;;;;;;;;;;;22.64;46.95;102089.19;6102347;23;19920;-75
2022/05/21 07:02:31;;;;;;;;;;;;;;;22.49;46.68;102087.59;6128308;23;19912;-81
2022/05/21 07:07:46;;;;;;;;;;;;;;;22.21;46.05;102091.34;6128267;23;19979;-78
2022/05/21 07:10:17;;;;;;;;;;;;;;;22.33;46.48;102092.16;6102243;23;19913;-77
2022/05/21 07:12:42;;;;;;;;;;;;;;;22.28;46.09;102111.44;6102460;23;19928;-76
2022/05/21 07:15:08;;;;;;;;;;;;;;;22.27;45.28;102102.69;6128306;23;20322;-76
2022/05/21 07:17:33;;;;;;;;;;;;;;;22.26;45.47;102107.97;6102104;23;19916;-76
2022/05/21 07:20:01;;;;;;;;;;;;;;;22.31;44.25;102106.16;6128176;23;19913;-77
2022/05/21 07:22:26;;;;;;;;;;;;;;;22.17;43.59;102107.13;6102691;23;19916;-76
2022/05/21 07:24:51;;;;;;;;;;;;;;;22.11;45.16;102109.78;6128586;23;19913;-76
2022/05/21 07:27:17;;;;;;;;;;;;;;;22.19;45.18;102112.38;6128352;23;19983;-82
2022/05/21 07:29:43;;;;;;;;;;;;;;;22.28;44.56;102117.56;6078155;23;19968;-76
2022/05/21 07:32:19;;;;;;;;;;;;;;;22.24;44.88;102113.22;6101924;23;20411;-76
2022/05/21 07:34:45;;;;;;;;;;;;;;;22.27;44.37;102112.31;6101964;23;19916;-76
2022/05/21 07:37:10;;;;;;;;;;;;;;;22.26;44.60;102118.44;6102339;23;19917;-76
2022/05/21 07:39:35;;;;;;;;;;;;;;;22.41;43.91;102118.31;6102131;23;20234;-76
2022/05/21 07:42:01;;;;;;;;;;;;;;;22.44;43.42;102123.50;6128029;23;19975;-78
2022/05/21 07:44:26;;;;;;;;;;;;;;;22.02;43.69;102128.22;6128128;23;19909;-77
2022/05/21 07:46:51;;;;;;;;;;;;;;;22.14;43.87;102133.34;6127975;23;20318;-77
2022/05/21 07:49:16;;;;;;;;;;;;;;;22.19;43.61;102136.81;6078000;23;19913;-76
2022/05/21 07:51:42;;;;;;;;;;;;;;;22.18;44.13;102126.34;6077802;23;19920;-75
2022/05/21 07:54:07;;;;;;;;;;;;;;;22.43;43.66;102141.88;6077915;23;20242;-76
2022/05/21 07:56:33;;;;;;;;;;;;;;;22.57;42.94;102146.13;6077677;23;19987;-79
2022/05/21 07:58:58;;;;;;;;;;;;;;;22.58;42.68;102154.84;6076463;23;19913;-78
2022/05/21 08:01:23;;;;;;;;;;;;;;;22.55;43.11;102153.13;6101110;23;19917;-76
2022/05/21 08:03:48;;;;;;;;;;;;;;;22.63;42.99;102152.22;6077503;23;19992;-76
2022/05/21 08:06:15;;;;;;;;;;;;;;;22.53;42.11;102148.78;6128953;23;19951;-77
2022/05/21 08:08:40;;;;;;;;;;;;;;;22.41;42.53;102156.75;6102821;23;19901;-77
2022/05/21 08:11:06;;;;;;;;;;;;;;;22.30;42.83;102164.75;6102867;23;19913;-77
2022/05/21 08:13:31;;;;;;;;;;;;;;;22.39;42.82;102167.28;6128636;23;19917;-78
2022/05/21 08:15:56;;;;;;;;;;;;;;;22.44;42.04;102167.25;6128743;23;19988;-77
2022/05/21 08:18:21;;;;;;;;;;;;;;;22.37;42.29;102163.81;6078261;23;19920;-78
2022/05/21 08:20:48;;;;;;;;;;;;;;;22.33;42.43;102164.72;6077699;23;20318;-75
2022/05/21 08:28:43;;;;;;;;;;;;;;;22.26;43.91;102165.66;6127448;23;19916;-76
2022/05/21 08:31:08;;;;;;;;;;;;;;;22.20;47.60;102163.91;6101717;23;19913;-76
2022/05/21 08:33:34;;;;;;;;;;;;;;;22.04;49.25;102178.03;6101625;23;19936;-77
2022/05/21 08:35:59;;;;;;;;;;;;;;;21.86;46.22;102182.50;6101808;23;19913;-77
2022/05/21 08:38:25;;;;;;;;;;;;;;;21.72;49.83;102176.47;6101245;23;19913;-77
2022/05/21 08:40:55;;;;;;;;;;;;;;;21.64;48.53;102166.00;6077295;23;19995;-77
2022/05/21 08:43:30;;;;;;;;;;;;;;;21.48;52.08;102169.59;6101481;23;19909;-76
2022/05/21 08:46:03;;;;;;;;;;;;;;;21.43;52.65;102169.63;6101546;23;19916;-77
2022/05/21 08:48:31;;;;;;;;;;;;;;;21.40;52.50;102164.34;6101294;23;19983;-77
2022/05/21 08:50:57;;;;;;;;;;;;;;;21.29;51.98;102172.25;6101510;23;19936;-77
2022/05/21 08:53:25;;;;;;;;;;;;;;;21.38;52.42;102163.50;6128307;23;19968;-77
2022/05/21 08:55:52;;;;;;;;;;;;;;;21.29;52.81;102169.63;6127772;23;20008;-77
2022/05/21 08:58:24;;;;;;;;;;;;;;;21.24;51.20;102170.56;6102083;23;20310;-77
2022/05/21 09:00:49;;;;;;;;;;;;;;;21.23;52.41;102181.88;6129496;23;19909;-76
2022/05/21 09:03:18;;;;;;;;;;;;;;;21.28;52.79;102174.91;6079494;23;19963;-77
2022/05/21 09:05:49;;;;;;;;;;;;;;;21.27;52.55;102179.25;6129346;23;20314;-77
2022/05/21 09:08:31;;;;;;;;;;;;;;;21.23;49.93;102181.88;6129426;23;19909;-78
2022/05/21 09:11:11;;;;;;;;;;;;;;;21.15;51.72;102179.31;6103611;23;19916;-77
2022/05/21 09:13:44;;;;;;;;;;;;;;;21.12;52.56;102174.97;6103420;23;19917;-77
2022/05/21 09:18:58;;;;;;;;;;;;;;;21.15;49.57;102179.31;6129490;23;19916;-77
2022/05/21 09:21:25;;;;;;;;;;;;;;;21.02;50.36;102183.69;6103643;23;19917;-77
2022/05/21 09:23:51;;;;;;;;;;;;;;;21.07;52.96;102189.78;6103456;23;19909;-77
2022/05/21 09:26:18;;;;;;;;;;;;;;;21.08;52.51;102190.69;6103417;23;19913;-77
2022/05/21 09:28:44;;;;;;;;;;;;;;;21.12;53.35;102187.16;6103202;23;19915;-77
2022/05/21 09:31:10;;;;;;;;;;;;;;;21.13;52.95;102197.63;6102997;23;19988;-77
2022/05/21 09:33:37;;;;;;;;;;;;;;;21.08;48.98;102191.53;6103283;23;19967;-77
2022/05/21 09:36:03;;;;;;;;;;;;;;;21.08;52.44;102190.69;6129032;23;19992;-77
2022/05/21 09:38:31;;;;;;;;;;;;;;;21.04;53.58;102197.66;6128009;23;21521;-77
2022/05/21 09:41:05;;;;;;;;;;;;;;;21.05;52.92;102194.16;6128681;23;20276;-77
2022/05/21 09:46:16;;;;;;;;;;;;;;;21.04;52.97;102195.03;6128877;23;19916;-78
2022/05/21 09:48:41;;;;;;;;;;;;;;;21.04;52.96;102194.19;6129030;23;19913;-77
2022/05/21 09:51:19;;;;;;;;;;;;;;;21.06;53.16;102195.91;6103141;23;19952;-79
2022/05/21 09:53:44;;;;;;;;;;;;;;;21.08;52.90;102198.53;6103198;23;20048;-77
2022/05/21 09:56:21;;;;;;;;;;;;;;;21.00;52.75;102202.91;6103627;23;19913;-79
2022/05/21 09:58:48;;;;;;;;;;;;;;;21.00;53.62;102208.13;6102757;23;19940;-77
2022/05/21 10:01:15;;;;;;;;;;;;;;;20.95;51.69;102210.78;6128836;23;20353;-78
2022/05/21 10:03:50;;;;;;;;;;;;;;;20.92;53.94;102201.16;6103088;23;19909;-77
2022/05/21 10:06:15;;;;;;;;;;;;;;;20.90;52.29;102215.13;6102981;23;19920;-78
2022/05/21 10:11:29;;;;;;;;;;;;;;;20.98;52.82;102215.13;6128796;23;19940;-77
2022/05/21 10:13:57;;;;;;;;;;;;;;;20.93;52.68;102217.75;6128613;23;19924;-77
2022/05/21 10:16:40;;;;;;;;;;;;;;;20.92;52.22;102219.47;6128771;23;19913;-78
2022/05/21 10:19:12;;;;;;;;;;;;;;;20.92;51.35;102223.84;6128641;23;19967;-77
2022/05/21 10:21:55;;;;;;;;;;;;;;;20.92;52.40;102221.22;6128636;23;19909;-78
2022/05/21 10:24:26;;;;;;;;;;;;;;;20.89;51.01;102222.09;6128724;23;19909;-76
2022/05/21 10:27:04;;;;;;;;;;;;;;;20.90;51.88;102230.81;6102999;23;19909;-76
2022/05/21 10:29:47;;;;;;;;;;;;;;;20.90;49.27;102230.81;6128447;23;19909;-76
2022/05/21 10:32:13;;;;;;;;;;;;;;;20.96;52.01;102236.06;6102227;23;19913;-76
2022/05/21 10:34:44;;;;;;;;;;;;;;;20.97;50.75;102235.19;6128573;23;19908;-76
2022/05/21 10:37:12;;;;;;;;;;;;;;;20.95;51.32;102236.94;6102762;23;19909;-76
2022/05/21 10:39:56;;;;;;;;;;;;;;;20.92;47.79;102240.41;6102540;23;19909;-76
2022/05/21 10:42:21;;;;;;;;;;;;;;;20.91;50.19;102240.44;6128387;23;19963;-76
2022/05/21 10:44:58;;;;;;;;;;;;;;;20.92;48.87;102239.53;6128357;23;19932;-76
2022/05/21 10:47:29;;;;;;;;;;;;;;;20.91;51.26;102233.44;6102311;23;19984;-76
2022/05/21 10:50:13;;;;;;;;;;;;;;;20.90;51.73;102228.19;6128314;23;20245;-76
2022/05/21 10:52:38;;;;;;;;;;;;;;;20.92;50.55;102242.16;6102087;23;19920;-77
2022/05/21 10:55:15;;;;;;;;;;;;;;;20.92;49.82;102236.94;6102299;23;19941;-77
2022/05/21 10:57:49;;;;;;;;;;;;;;;20.92;49.14;102239.53;6102194;23;19984;-78
2022/05/21 11:00:31;;;;;;;;;;;;;;;20.91;48.79;102240.44;6102232;23;19964;-78
2022/05/21 11:03:15;;;;;;;;;;;;;;;20.93;49.53;102243.91;6128397;23;19947;-77
2022/05/21 11:05:43;;;;;;;;;;;;;;;21.06;47.83;102252.63;6128375;23;20314;-76
2022/05/21 11:08:14;;;;;;;;;;;;;;;21.14;47.36;102238.66;6102042;23;19916;-78
2022/05/21 11:10:53;;;;;;;;;;;;;;;21.16;47.90;102238.63;6128157;23;19909;-78
2022/05/21 11:13:21;;;;;;;;;;;;;;;21.13;46.08;102239.50;6101699;23;19924;-77
2022/05/21 11:15:56;;;;;;;;;;;;;;;21.21;45.92;102247.34;6102068;23;19909;-78
2022/05/21 11:18:21;;;;;;;;;;;;;;;21.22;46.54;102245.59;6102913;23;19909;-83
2022/05/21 11:21:02;;;;;;;;;;;;;;;21.11;47.56;102245.63;6102961;23;19923;-78
2022/05/21 11:23:43;;;;;;;;;;;;;;;21.03;49.79;102245.63;6102096;23;20220;-79
2022/05/21 11:26:24;;;;;;;;;;;;;;;21.05;48.07;102245.63;6101647;23;19909;-77
2022/05/21 11:28:53;;;;;;;;;;;;;;;21.04;47.94;102250.00;6128053;23;19908;-78
2022/05/21 11:37:18;;;;;;;;;;;;;;;21.04;50.54;102251.75;6128309;23;19909;-77
2022/05/21 11:39:35;;;;;;;;;;;;;;;21.03;47.08;102253.47;6128521;23;19920;-83
2022/05/21 11:42:00;;;;;;;;;;;;;;;21.01;48.19;102252.59;6102722;23;19987;-83
2022/05/21 11:44:55;;;;;;;;;;;;;;;20.99;47.69;102245.63;6102376;23;19913;-84
2022/05/21 11:47:20;;;;;;;;;;;;;;;20.97;48.43;102243.03;6128341;23;19909;-82
2022/05/21 11:49:59;;;;;;;;;;;;;;;20.99;47.02;102241.31;6101991;23;20397;-82
2022/05/21 11:52:28;;;;;;;;;;;;;;;20.99;46.51;102251.75;6102445;23;19920;-80
2022/05/21 11:54:53;;;;;;;;;;;;;;;20.89;47.66;102252.63;6128769;23;19909;-82
2022/05/21 11:57:38;;;;;;;;;;;;;;;20.92;47.66;102252.63;6128020;23;20286;-82
2022/05/21 12:00:07;;;;;;;;;;;;;;;20.94;48.32;102258.72;6101990;23;19909;-83
2022/05/21 12:02:34;;;;;;;;;;;;;;;20.90;45.76;102262.22;6102407;23;19960;-82
2022/05/21 12:05:10;;;;;;;;;;;;;;;20.90;48.85;102262.22;6102665;23;19916;-83
2022/05/21 12:07:42;;;;;;;;;;;;;;;20.94;49.09;102266.59;6101702;23;19916;-84
2022/05/21 12:10:13;;;;;;;;;;;;;;;20.93;46.03;102273.56;6101790;23;19909;-84
2022/05/21 12:12:59;;;;;;;;;;;;;;;20.93;45.93;102263.09;6102160;23;20318;-84
2022/05/21 12:15:45;;;;;;;;;;;;;;;20.98;48.44;102264.84;6097036;23;20250;-85
2022/05/21 12:18:28;;;;;;;;;;;;;;;21.00;48.43;102260.47;6077437;23;19916;-83
2022/05/21 12:20:54;;;;;;;;;;;;;;;21.01;48.22;102255.22;6102139;23;19916;-83
2022/05/21 12:23:32;;;;;;;;;;;;;;;21.00;49.01;102257.88;6128195;23;19909;-84
2022/05/21 12:26:00;;;;;;;;;;;;;;;21.00;46.21;102253.50;6102461;23;19988;-84
2022/05/21 12:28:31;;;;;;;;;;;;;;;20.96;46.58;102259.59;6102122;23;20297;-82
2022/05/21 12:31:03;;;;;;;;;;;;;;;20.99;46.20;102250.88;6127937;23;20341;-82
2022/05/21 12:33:32;;;;;;;;;;;;;;;20.94;46.46;102250.88;6102943;23;19917;-84
2022/05/21 12:36:21;;;;;;;;;;;;;;;20.95;47.58;102260.50;6102166;23;19909;-86
2022/05/21 12:38:52;;;;;;;;;;;;;;;20.99;45.66;102262.25;6074536;23;19915;-84
2022/05/21 12:41:23;;;;;;;;;;;;;;;20.96;45.43;102259.59;6102015;23;19941;-88
2022/05/21 12:43:50;;;;;;;;;;;;;;;20.98;48.47;102257.00;6102582;23;20333;-87
2022/05/21 12:46:19;;;;;;;;;;;;;;;21.02;46.56;102250.88;6129167;23;19948;-86
2022/05/21 12:48:45;;;;;;;;;;;;;;;21.03;46.37;102253.47;6102972;23;19916;-88
2022/05/21 12:51:13;;;;;;;;;;;;;;;21.04;46.24;102257.84;6128711;23;19913;-86
2022/05/21 12:53:49;;;;;;;;;;;;;;;21.04;45.76;102255.25;6102506;23;19920;-87
2022/05/21 12:56:18;;;;;;;;;;;;;;;21.03;46.21;102263.09;6102736;23;19908;-87
2022/05/21 12:58:43;;;;;;;;;;;;;;;21.02;46.39;102261.34;6104088;23;19908;-86
2022/05/21 13:01:27;;;;;;;;;;;;;;;21.05;47.83;102258.72;6079769;23;19940;-86
2022/05/21 13:03:52;;;;;;;;;;;;;;;21.06;45.82;102263.97;6129963;23;19916;-84
2022/05/21 13:06:21;;;;;;;;;;;;;;;21.07;45.45;102264.81;6102629;23;19909;-87
2022/05/21 13:08:52;;;;;;;;;;;;;;;21.07;45.96;102273.53;6101655;23;20357;-76
2022/05/21 13:11:22;;;;;;;;;;;;;;;21.05;47.03;102272.66;6101772;23;20321;-77
2022/05/21 13:14:08;;;;;;;;;;;;;;;21.03;46.01;102282.25;6127481;23;20318;-76